Relevés horaires St-Hubert (Belgique)


Relevés horaires à St-Hubert - Dimanche 29 Juill. 2018
Heure UTC1 Température [°C] Vent [km/h] Hum. [%] Pres.4 [hPa] Visi. [Km] Nébu. [octa] Préc.5 [mm] Cond.
2m. Res. Ros. Dir.2 Vit. Moy. Raf.3
23:00 16.8 16.8 12.2 NNO 0.0 0.0 0.0 74 1015.4(1.0/3h) 45 0/8 -- --
22:00 18.4 18.4 11.5 NNO 0.0 0.0 0.0 64 1014.8(1.1/3h) 40 0/8 -- --
21:00 19.4 19.4 11.7 NNO 0.0 0.0 0.0 61 1014.2(1.0/3h) 45 0/8 -- --
20:00 19.8 19.8 11.8 NNO 0.0 0.0 0.0 60 1013.7(0.9/3h) 45 0/8 -- --
19:00 21.7 21.7 11.6 NNO 0.0 0.0 0.0 53 1012.9(0.5/3h) 40 0/8 -- --
18:00 23.0 23.0 10.5 NNO 0.0 0.0 0.0 45 1012.4(0.3/3h) 45 0/8 0/12h
--
17:00 24.0 24.0 10.4 NNO 0.0 0.0 0.0 42 1011.9(0.1/3h) 35 0/8 -- --
16:00 24.4 24.4 10.6 NNO 0.0 0.0 0.0 42 1011.8(-0.3/3h) 30 0/8 -- --
15:00 24.1 24.1 10.5 NNO 0.0 0.0 0.0 42 1011.8(-0.6/3h) 35 0/8 -- --
14:00 23.4 23.4 10.4 NNO 0.0 0.0 0.0 44 1012.1(-0.6/3h) 35 0/8 -- --
13:00 24.0 24.0 11.5 NNO 0.0 0.0 0.0 45 1012.2(0.2/3h) 35 0/8 -- --
12:00 21.8 21.8 10.9 NNO 0.0 0.0 0.0 50 1013(0.0/3h) 35 0/8 0/6h
--
11:00 20.5 20.5 10.0 NNO 0.0 0.0 0.0 51 1013.3(0.1/3h) 29 0/8 -- --
10:00 20.9 20.9 8.9 NNO 0.0 0.0 0.0 46 1013.1(0.1/3h) 30 0/8 -- --
09:00 20.3 20.3 8.6 NNO 0.0 0.0 0.0 47 1013.4(0.1/3h) 35 0/8 -- --
08:00 19.0 19.0 8.2 NNO 0.0 0.0 0.0 49 1013.6(0.2/3h) 30 0/8 -- --
07:00 16.8 16.8 7.7 NNO 0.0 0.0 0.0 55 1014.1(0.2/3h) 35 0/8 -- --
06:00 15.9 15.9 7.1 NNO 0.0 0.0 0.0 56 1014.3(-0.1/3h) 45 0/8 0/12h
--
05:00 15.4 15.4 6.1 NNO 0.0 0.0 0.0 54 1014.3(-0.5/3h) 40 0/8 -- --
04:00 14.5 14.5 7.5 NNO 0.0 0.0 0.0 63 1014.4(-0.7/3h) 45 0/8 -- --
03:00 15.5 15.5 7.0 NNO 0.0 0.0 0.0 57 1014.4(-0.6/3h) 45 0/8 -- --
02:00 15.1 15.1 7.0 NNO 0.0 0.0 0.0 58 1014.8(0.2/3h) 45 0/8 -- --
01:00 15.3 15.3 6.4 NNO 0.0 0.0 0.0 55 1015(0.0/3h) 45 0/8 -- --
00:00 14.4 14.4 6.7 NNO 0.0 0.0 0.0 60 1015.3(0.3/3h) 45 0/8 0/6h
0/24h
--

1 Coordinated Universal Time. Actuellement il est 13:00 locale et 11:00 UTC.

2 Le vent souffle depuis la direction indiquée vers la direction oposée.

3 Les rafales max. sont disponible 40 min après l'heure du relevé.

4 Pour les stations d'altitude (plus de 600m) le géopotentiel du niveau le plus proche de la pression obligatoire est indiqué.

5 Les stations disposant d'un diffuseur peuvent indiquer "trace". Cela signifie que des précipitations ont touchés le sol mais que la quantité est inférieure à 0.1 mm.

Récapitulatif de la journée
Température [°C] Vent [km/h] Ensoleillement4 [h] Precipitations totale5 [mm] Pression [Hpa]
Min1 Max.2 Moy.3 Max. Min Max.
11.9 25.1 0 0.0 0 h 0 min 0 1011.8 1015.4

1 Température minimale relevée entre 18:00 UTC la veille et 18:00 UTC le jour donné.

2 Température maximale relevée entre 06:00 UTC le jour donné et 06:00 UTC le lendemain.

3 Vent moyen de la journée basé sur les relevés horaires.

4 Ensoleillement en heures relevé entre 06:00 UTC la veille et 06:00 UTC le jour donné.

5 Précipitations totales tombées entre 06:00 UTC la jour donné et 06:00 UTC le lendemain.

Graphiques horaires